sensor_id;sensor_type;location;lat;lon;timestamp;P1;durP1;ratioP1;P2;durP2;ratioP2
4089;SDS011;2059;48.538;12.146;2023-02-26T00:04:24;3.30;;;3.10;;
4089;SDS011;2059;48.538;12.146;2023-02-26T00:09:26;2.67;;;2.60;;
4089;SDS011;2059;48.538;12.146;2023-02-26T00:14:28;2.77;;;2.67;;
4089;SDS011;2059;48.538;12.146;2023-02-26T00:19:32;2.60;;;2.50;;
4089;SDS011;2059;48.538;12.146;2023-02-26T00:24:34;2.40;;;2.30;;
4089;SDS011;2059;48.538;12.146;2023-02-26T00:29:36;2.50;;;2.40;;
4089;SDS011;2059;48.538;12.146;2023-02-26T00:34:40;2.80;;;2.70;;
4089;SDS011;2059;48.538;12.146;2023-02-26T00:39:43;2.40;;;2.27;;
4089;SDS011;2059;48.538;12.146;2023-02-26T00:44:51;3.03;;;2.90;;
4089;SDS011;2059;48.538;12.146;2023-02-26T00:49:59;2.93;;;2.83;;
4089;SDS011;2059;48.538;12.146;2023-02-26T00:55:08;3.13;;;2.90;;
4089;SDS011;2059;48.538;12.146;2023-02-26T01:00:10;5.17;;;3.03;;
4089;SDS011;2059;48.538;12.146;2023-02-26T01:05:15;2.63;;;2.53;;
4089;SDS011;2059;48.538;12.146;2023-02-26T01:10:17;3.17;;;2.90;;
4089;SDS011;2059;48.538;12.146;2023-02-26T01:15:20;2.87;;;2.77;;
4089;SDS011;2059;48.538;12.146;2023-02-26T01:20:26;2.83;;;2.70;;
4089;SDS011;2059;48.538;12.146;2023-02-26T01:25:34;3.60;;;3.50;;
4089;SDS011;2059;48.538;12.146;2023-02-26T01:30:39;4.20;;;3.90;;
4089;SDS011;2059;48.538;12.146;2023-02-26T01:35:45;3.20;;;3.00;;
4089;SDS011;2059;48.538;12.146;2023-02-26T01:46:27;3.67;;;3.40;;
4089;SDS011;2059;48.538;12.146;2023-02-26T01:51:43;3.23;;;2.93;;
4089;SDS011;2059;48.538;12.146;2023-02-26T01:56:48;3.90;;;3.67;;
4089;SDS011;2059;48.538;12.146;2023-02-26T02:01:53;4.17;;;3.40;;
4089;SDS011;2059;48.538;12.146;2023-02-26T02:06:59;3.33;;;3.10;;
4089;SDS011;2059;48.538;12.146;2023-02-26T02:12:11;3.97;;;3.77;;
4089;SDS011;2059;48.538;12.146;2023-02-26T02:17:22;3.13;;;2.83;;
4089;SDS011;2059;48.538;12.146;2023-02-26T02:22:37;6.37;;;2.97;;
4089;SDS011;2059;48.538;12.146;2023-02-26T02:28:02;3.20;;;2.27;;
4089;SDS011;2059;48.538;12.146;2023-02-26T02:33:15;2.60;;;2.50;;
4089;SDS011;2059;48.538;12.146;2023-02-26T02:38:24;3.77;;;3.57;;
4089;SDS011;2059;48.538;12.146;2023-02-26T02:43:29;3.80;;;3.50;;
4089;SDS011;2059;48.538;12.146;2023-02-26T02:48:35;4.10;;;3.70;;
4089;SDS011;2059;48.538;12.146;2023-02-26T02:53:42;4.13;;;3.40;;
4089;SDS011;2059;48.538;12.146;2023-02-26T02:58:49;4.00;;;3.70;;
4089;SDS011;2059;48.538;12.146;2023-02-26T03:03:56;3.80;;;3.70;;
4089;SDS011;2059;48.538;12.146;2023-02-26T03:09:02;4.27;;;3.77;;
4089;SDS011;2059;48.538;12.146;2023-02-26T03:14:06;5.73;;;3.90;;
4089;SDS011;2059;48.538;12.146;2023-02-26T03:19:13;2.20;;;2.20;;
4089;SDS011;2059;48.538;12.146;2023-02-26T03:24:24;2.97;;;2.80;;
4089;SDS011;2059;48.538;12.146;2023-02-26T03:29:32;4.03;;;2.87;;
4089;SDS011;2059;48.538;12.146;2023-02-26T03:34:40;3.00;;;2.80;;
4089;SDS011;2059;48.538;12.146;2023-02-26T03:39:49;3.93;;;3.20;;
4089;SDS011;2059;48.538;12.146;2023-02-26T03:44:54;2.83;;;2.73;;
4089;SDS011;2059;48.538;12.146;2023-02-26T03:50:00;4.73;;;4.43;;
4089;SDS011;2059;48.538;12.146;2023-02-26T03:55:07;2.50;;;2.30;;
4089;SDS011;2059;48.538;12.146;2023-02-26T04:00:12;3.43;;;3.23;;
4089;SDS011;2059;48.538;12.146;2023-02-26T04:05:17;3.80;;;3.60;;
4089;SDS011;2059;48.538;12.146;2023-02-26T04:10:23;3.57;;;3.40;;
4089;SDS011;2059;48.538;12.146;2023-02-26T04:15:29;3.63;;;3.43;;
4089;SDS011;2059;48.538;12.146;2023-02-26T04:20:32;3.70;;;3.50;;
4089;SDS011;2059;48.538;12.146;2023-02-26T04:25:34;2.93;;;2.83;;
4089;SDS011;2059;48.538;12.146;2023-02-26T04:30:36;3.67;;;3.50;;
4089;SDS011;2059;48.538;12.146;2023-02-26T04:35:39;5.73;;;3.23;;
4089;SDS011;2059;48.538;12.146;2023-02-26T04:40:40;3.63;;;3.43;;
4089;SDS011;2059;48.538;12.146;2023-02-26T04:45:43;3.20;;;3.10;;
4089;SDS011;2059;48.538;12.146;2023-02-26T04:50:47;3.73;;;3.47;;
4089;SDS011;2059;48.538;12.146;2023-02-26T04:55:48;3.70;;;3.53;;
4089;SDS011;2059;48.538;12.146;2023-02-26T05:00:51;6.87;;;2.60;;
4089;SDS011;2059;48.538;12.146;2023-02-26T05:05:55;3.50;;;2.30;;
4089;SDS011;2059;48.538;12.146;2023-02-26T05:10:57;2.57;;;2.47;;
4089;SDS011;2059;48.538;12.146;2023-02-26T05:15:58;2.50;;;2.40;;
4089;SDS011;2059;48.538;12.146;2023-02-26T05:21:02;2.60;;;2.40;;
4089;SDS011;2059;48.538;12.146;2023-02-26T05:26:04;2.73;;;2.53;;
4089;SDS011;2059;48.538;12.146;2023-02-26T05:31:06;2.60;;;2.40;;
4089;SDS011;2059;48.538;12.146;2023-02-26T05:36:09;2.00;;;1.90;;
4089;SDS011;2059;48.538;12.146;2023-02-26T05:41:11;2.77;;;2.57;;
4089;SDS011;2059;48.538;12.146;2023-02-26T05:46:13;2.53;;;2.17;;
4089;SDS011;2059;48.538;12.146;2023-02-26T05:51:16;2.40;;;2.30;;
4089;SDS011;2059;48.538;12.146;2023-02-26T05:56:18;2.50;;;2.30;;
4089;SDS011;2059;48.538;12.146;2023-02-26T06:01:20;3.47;;;2.60;;
4089;SDS011;2059;48.538;12.146;2023-02-26T06:06:23;2.40;;;2.30;;
4089;SDS011;2059;48.538;12.146;2023-02-26T06:11:25;2.40;;;2.30;;
4089;SDS011;2059;48.538;12.146;2023-02-26T06:16:27;2.63;;;2.43;;
4089;SDS011;2059;48.538;12.146;2023-02-26T06:21:31;2.77;;;2.60;;
4089;SDS011;2059;48.538;12.146;2023-02-26T06:26:33;2.40;;;2.30;;
4089;SDS011;2059;48.538;12.146;2023-02-26T06:31:34;2.43;;;2.43;;
4089;SDS011;2059;48.538;12.146;2023-02-26T06:36:38;2.63;;;2.50;;
4089;SDS011;2059;48.538;12.146;2023-02-26T06:41:39;3.40;;;3.20;;
4089;SDS011;2059;48.538;12.146;2023-02-26T06:46:41;3.23;;;3.03;;
4089;SDS011;2059;48.538;12.146;2023-02-26T06:51:44;2.90;;;2.70;;
4089;SDS011;2059;48.538;12.146;2023-02-26T06:56:46;2.73;;;2.53;;
4089;SDS011;2059;48.538;12.146;2023-02-26T07:01:48;3.23;;;3.03;;
4089;SDS011;2059;48.538;12.146;2023-02-26T07:06:51;3.40;;;3.20;;
4089;SDS011;2059;48.538;12.146;2023-02-26T07:11:53;2.90;;;2.80;;
4089;SDS011;2059;48.538;12.146;2023-02-26T07:16:55;3.10;;;2.90;;
4089;SDS011;2059;48.538;12.146;2023-02-26T07:21:58;3.93;;;3.07;;
4089;SDS011;2059;48.538;12.146;2023-02-26T07:27:00;3.30;;;3.10;;
4089;SDS011;2059;48.538;12.146;2023-02-26T07:32:02;3.40;;;3.20;;
4089;SDS011;2059;48.538;12.146;2023-02-26T07:37:05;3.10;;;3.00;;
4089;SDS011;2059;48.538;12.146;2023-02-26T07:42:07;3.00;;;2.90;;
4089;SDS011;2059;48.538;12.146;2023-02-26T07:47:09;3.07;;;2.97;;
4089;SDS011;2059;48.538;12.146;2023-02-26T07:52:13;3.87;;;3.63;;
4089;SDS011;2059;48.538;12.146;2023-02-26T07:57:15;3.00;;;2.70;;
4089;SDS011;2059;48.538;12.146;2023-02-26T08:02:17;4.80;;;4.50;;
4089;SDS011;2059;48.538;12.146;2023-02-26T08:07:20;2.90;;;2.80;;
4089;SDS011;2059;48.538;12.146;2023-02-26T08:12:22;3.20;;;3.10;;
4089;SDS011;2059;48.538;12.146;2023-02-26T08:17:24;3.60;;;3.40;;
4089;SDS011;2059;48.538;12.146;2023-02-26T08:22:27;3.07;;;2.87;;
4089;SDS011;2059;48.538;12.146;2023-02-26T08:27:29;2.80;;;2.70;;
4089;SDS011;2059;48.538;12.146;2023-02-26T08:32:31;3.57;;;3.37;;
4089;SDS011;2059;48.538;12.146;2023-02-26T08:37:34;3.13;;;3.03;;
4089;SDS011;2059;48.538;12.146;2023-02-26T08:42:37;2.77;;;2.60;;
4089;SDS011;2059;48.538;12.146;2023-02-26T08:47:39;2.87;;;2.77;;
4089;SDS011;2059;48.538;12.146;2023-02-26T08:52:43;2.87;;;2.67;;
4089;SDS011;2059;48.538;12.146;2023-02-26T08:57:45;2.90;;;2.80;;
4089;SDS011;2059;48.538;12.146;2023-02-26T09:02:47;2.33;;;2.33;;
4089;SDS011;2059;48.538;12.146;2023-02-26T09:07:50;2.97;;;2.87;;
4089;SDS011;2059;48.538;12.146;2023-02-26T09:12:52;2.57;;;2.47;;
4089;SDS011;2059;48.538;12.146;2023-02-26T09:17:54;3.80;;;3.57;;
4089;SDS011;2059;48.538;12.146;2023-02-26T09:22:57;3.40;;;3.20;;
4089;SDS011;2059;48.538;12.146;2023-02-26T09:27:59;3.10;;;3.00;;
4089;SDS011;2059;48.538;12.146;2023-02-26T09:33:01;3.13;;;3.03;;
4089;SDS011;2059;48.538;12.146;2023-02-26T09:38:04;3.40;;;3.23;;
4089;SDS011;2059;48.538;12.146;2023-02-26T09:43:24;3.40;;;3.27;;
4089;SDS011;2059;48.538;12.146;2023-02-26T09:48:33;3.53;;;3.33;;
4089;SDS011;2059;48.538;12.146;2023-02-26T09:53:40;3.00;;;2.80;;
4089;SDS011;2059;48.538;12.146;2023-02-26T09:58:43;3.70;;;3.60;;
4089;SDS011;2059;48.538;12.146;2023-02-26T10:03:51;3.07;;;2.87;;
4089;SDS011;2059;48.538;12.146;2023-02-26T10:09:07;2.60;;;2.47;;
4089;SDS011;2059;48.538;12.146;2023-02-26T10:14:25;2.97;;;2.87;;
4089;SDS011;2059;48.538;12.146;2023-02-26T10:19:32;4.50;;;3.20;;
4089;SDS011;2059;48.538;12.146;2023-02-26T10:24:39;3.20;;;3.10;;
4089;SDS011;2059;48.538;12.146;2023-02-26T10:29:47;2.87;;;2.77;;
4089;SDS011;2059;48.538;12.146;2023-02-26T10:34:56;2.80;;;2.70;;
4089;SDS011;2059;48.538;12.146;2023-02-26T10:40:03;3.30;;;3.20;;
4089;SDS011;2059;48.538;12.146;2023-02-26T10:45:17;3.00;;;2.90;;
4089;SDS011;2059;48.538;12.146;2023-02-26T10:50:28;3.33;;;3.03;;
4089;SDS011;2059;48.538;12.146;2023-02-26T10:55:33;3.10;;;2.80;;
4089;SDS011;2059;48.538;12.146;2023-02-26T11:00:42;3.87;;;3.77;;
4089;SDS011;2059;48.538;12.146;2023-02-26T11:05:45;2.70;;;2.60;;
4089;SDS011;2059;48.538;12.146;2023-02-26T11:10:50;2.80;;;2.70;;
4089;SDS011;2059;48.538;12.146;2023-02-26T11:15:53;3.60;;;3.50;;
4089;SDS011;2059;48.538;12.146;2023-02-26T11:20:57;3.23;;;2.43;;
4089;SDS011;2059;48.538;12.146;2023-02-26T11:26:05;2.63;;;2.53;;
4089;SDS011;2059;48.538;12.146;2023-02-26T11:31:09;2.70;;;2.60;;
4089;SDS011;2059;48.538;12.146;2023-02-26T11:36:13;2.50;;;2.40;;
4089;SDS011;2059;48.538;12.146;2023-02-26T11:41:19;2.97;;;2.87;;
4089;SDS011;2059;48.538;12.146;2023-02-26T11:46:22;3.30;;;3.20;;
4089;SDS011;2059;48.538;12.146;2023-02-26T11:51:26;3.10;;;2.90;;
4089;SDS011;2059;48.538;12.146;2023-02-26T11:56:33;2.53;;;2.43;;
4089;SDS011;2059;48.538;12.146;2023-02-26T12:01:41;3.40;;;3.30;;
4089;SDS011;2059;48.538;12.146;2023-02-26T12:06:43;3.17;;;2.97;;
4089;SDS011;2059;48.538;12.146;2023-02-26T12:11:53;3.23;;;3.10;;
4089;SDS011;2059;48.538;12.146;2023-02-26T12:17:14;2.90;;;2.80;;
4089;SDS011;2059;48.538;12.146;2023-02-26T12:22:28;3.03;;;2.93;;
4089;SDS011;2059;48.538;12.146;2023-02-26T12:27:50;2.93;;;2.83;;
4089;SDS011;2059;48.538;12.146;2023-02-26T12:33:14;3.30;;;3.20;;
4089;SDS011;2059;48.538;12.146;2023-02-26T12:38:27;4.00;;;3.90;;
4089;SDS011;2059;48.538;12.146;2023-02-26T12:43:34;4.33;;;4.13;;
4089;SDS011;2059;48.538;12.146;2023-02-26T12:48:52;3.67;;;3.47;;
4089;SDS011;2059;48.538;12.146;2023-02-26T12:54:20;3.70;;;3.60;;
4089;SDS011;2059;48.538;12.146;2023-02-26T12:59:42;3.03;;;2.83;;
4089;SDS011;2059;48.538;12.146;2023-02-26T13:05:13;2.57;;;2.47;;
4089;SDS011;2059;48.538;12.146;2023-02-26T13:10:26;2.67;;;2.67;;
4089;SDS011;2059;48.538;12.146;2023-02-26T13:15:39;2.33;;;2.23;;
4089;SDS011;2059;48.538;12.146;2023-02-26T13:20:54;2.90;;;2.80;;
4089;SDS011;2059;48.538;12.146;2023-02-26T13:26:00;2.30;;;2.27;;
4089;SDS011;2059;48.538;12.146;2023-02-26T13:31:06;3.10;;;2.90;;
4089;SDS011;2059;48.538;12.146;2023-02-26T13:36:11;3.23;;;3.13;;
4089;SDS011;2059;48.538;12.146;2023-02-26T13:41:18;3.70;;;3.60;;
4089;SDS011;2059;48.538;12.146;2023-02-26T13:51:53;3.07;;;2.97;;
4089;SDS011;2059;48.538;12.146;2023-02-26T13:57:04;2.80;;;2.70;;
4089;SDS011;2059;48.538;12.146;2023-02-26T14:07:47;4.40;;;4.20;;
4089;SDS011;2059;48.538;12.146;2023-02-26T14:13:06;3.00;;;2.90;;
4089;SDS011;2059;48.538;12.146;2023-02-26T14:18:25;4.20;;;4.00;;
4089;SDS011;2059;48.538;12.146;2023-02-26T14:23:33;3.17;;;3.07;;
4089;SDS011;2059;48.538;12.146;2023-02-26T14:28:41;2.80;;;2.70;;
4089;SDS011;2059;48.538;12.146;2023-02-26T14:33:47;2.70;;;2.60;;
4089;SDS011;2059;48.538;12.146;2023-02-26T14:39:00;2.80;;;2.60;;
4089;SDS011;2059;48.538;12.146;2023-02-26T14:44:06;3.13;;;3.03;;
4089;SDS011;2059;48.538;12.146;2023-02-26T14:49:24;2.77;;;2.67;;
4089;SDS011;2059;48.538;12.146;2023-02-26T15:00:10;3.07;;;2.97;;
4089;SDS011;2059;48.538;12.146;2023-02-26T15:10:57;2.70;;;2.60;;
4089;SDS011;2059;48.538;12.146;2023-02-26T15:16:16;2.70;;;2.60;;
4089;SDS011;2059;48.538;12.146;2023-02-26T15:21:29;2.83;;;2.73;;
4089;SDS011;2059;48.538;12.146;2023-02-26T15:26:39;2.60;;;2.50;;
4089;SDS011;2059;48.538;12.146;2023-02-26T15:31:51;2.80;;;2.70;;
4089;SDS011;2059;48.538;12.146;2023-02-26T15:36:56;3.20;;;3.10;;
4089;SDS011;2059;48.538;12.146;2023-02-26T15:41:59;3.73;;;2.83;;
4089;SDS011;2059;48.538;12.146;2023-02-26T15:47:04;2.80;;;2.60;;
4089;SDS011;2059;48.538;12.146;2023-02-26T15:52:08;2.97;;;2.87;;
4089;SDS011;2059;48.538;12.146;2023-02-26T15:57:13;4.60;;;3.30;;
4089;SDS011;2059;48.538;12.146;2023-02-26T16:02:19;2.70;;;2.60;;
4089;SDS011;2059;48.538;12.146;2023-02-26T16:07:23;3.90;;;3.70;;
4089;SDS011;2059;48.538;12.146;2023-02-26T16:12:26;3.83;;;3.53;;
4089;SDS011;2059;48.538;12.146;2023-02-26T16:17:42;3.03;;;2.93;;
4089;SDS011;2059;48.538;12.146;2023-02-26T16:22:48;3.57;;;3.37;;
4089;SDS011;2059;48.538;12.146;2023-02-26T16:27:58;3.20;;;2.97;;
4089;SDS011;2059;48.538;12.146;2023-02-26T16:33:02;3.00;;;2.80;;
4089;SDS011;2059;48.538;12.146;2023-02-26T16:38:11;3.70;;;3.40;;
4089;SDS011;2059;48.538;12.146;2023-02-26T16:48:43;3.20;;;3.00;;
4089;SDS011;2059;48.538;12.146;2023-02-26T16:53:51;3.43;;;3.23;;
4089;SDS011;2059;48.538;12.146;2023-02-26T16:59:00;3.87;;;3.57;;
4089;SDS011;2059;48.538;12.146;2023-02-26T17:04:05;3.87;;;3.47;;
4089;SDS011;2059;48.538;12.146;2023-02-26T17:09:22;3.30;;;3.20;;
4089;SDS011;2059;48.538;12.146;2023-02-26T17:14:26;2.67;;;2.57;;
4089;SDS011;2059;48.538;12.146;2023-02-26T17:19:36;3.50;;;3.30;;
4089;SDS011;2059;48.538;12.146;2023-02-26T17:24:39;4.27;;;3.97;;
4089;SDS011;2059;48.538;12.146;2023-02-26T17:29:44;4.70;;;4.23;;
4089;SDS011;2059;48.538;12.146;2023-02-26T17:34:50;3.30;;;3.10;;
4089;SDS011;2059;48.538;12.146;2023-02-26T17:39:53;3.90;;;3.60;;
4089;SDS011;2059;48.538;12.146;2023-02-26T17:44:56;4.20;;;4.00;;
4089;SDS011;2059;48.538;12.146;2023-02-26T17:49:59;3.30;;;3.17;;
4089;SDS011;2059;48.538;12.146;2023-02-26T17:55:02;5.10;;;4.63;;
4089;SDS011;2059;48.538;12.146;2023-02-26T18:00:04;4.00;;;3.70;;
4089;SDS011;2059;48.538;12.146;2023-02-26T18:05:08;4.00;;;3.80;;
4089;SDS011;2059;48.538;12.146;2023-02-26T18:10:14;5.00;;;4.50;;
4089;SDS011;2059;48.538;12.146;2023-02-26T18:15:17;4.00;;;3.80;;
4089;SDS011;2059;48.538;12.146;2023-02-26T18:20:20;5.53;;;4.90;;
4089;SDS011;2059;48.538;12.146;2023-02-26T18:25:23;5.50;;;5.10;;
4089;SDS011;2059;48.538;12.146;2023-02-26T18:30:28;4.87;;;4.43;;
4089;SDS011;2059;48.538;12.146;2023-02-26T18:35:31;4.80;;;4.40;;
4089;SDS011;2059;48.538;12.146;2023-02-26T18:40:35;4.80;;;4.50;;
4089;SDS011;2059;48.538;12.146;2023-02-26T18:45:37;6.67;;;4.80;;
4089;SDS011;2059;48.538;12.146;2023-02-26T18:50:39;5.20;;;4.80;;
4089;SDS011;2059;48.538;12.146;2023-02-26T18:55:42;10.43;;;6.43;;
4089;SDS011;2059;48.538;12.146;2023-02-26T19:00:44;4.60;;;4.30;;
4089;SDS011;2059;48.538;12.146;2023-02-26T19:05:53;5.07;;;4.53;;
4089;SDS011;2059;48.538;12.146;2023-02-26T19:10:57;5.77;;;5.27;;
4089;SDS011;2059;48.538;12.146;2023-02-26T19:15:59;5.60;;;5.10;;
4089;SDS011;2059;48.538;12.146;2023-02-26T19:21:01;3.90;;;3.60;;
4089;SDS011;2059;48.538;12.146;2023-02-26T19:26:06;3.97;;;3.67;;
4089;SDS011;2059;48.538;12.146;2023-02-26T19:31:08;3.80;;;3.60;;
4089;SDS011;2059;48.538;12.146;2023-02-26T19:36:10;3.60;;;3.30;;
4089;SDS011;2059;48.538;12.146;2023-02-26T19:41:13;4.17;;;3.60;;
4089;SDS011;2059;48.538;12.146;2023-02-26T19:46:17;4.47;;;4.07;;
4089;SDS011;2059;48.538;12.146;2023-02-26T19:51:19;4.50;;;4.10;;
4089;SDS011;2059;48.538;12.146;2023-02-26T19:56:22;4.70;;;4.30;;
4089;SDS011;2059;48.538;12.146;2023-02-26T20:01:24;4.47;;;4.07;;
4089;SDS011;2059;48.538;12.146;2023-02-26T20:06:26;4.03;;;3.73;;
4089;SDS011;2059;48.538;12.146;2023-02-26T20:11:30;3.83;;;3.63;;
4089;SDS011;2059;48.538;12.146;2023-02-26T20:16:32;3.90;;;3.60;;
4089;SDS011;2059;48.538;12.146;2023-02-26T20:21:33;3.57;;;3.27;;
4089;SDS011;2059;48.538;12.146;2023-02-26T20:26:37;4.50;;;3.60;;
4089;SDS011;2059;48.538;12.146;2023-02-26T20:31:38;3.90;;;3.70;;
4089;SDS011;2059;48.538;12.146;2023-02-26T20:36:40;5.13;;;4.30;;
4089;SDS011;2059;48.538;12.146;2023-02-26T20:41:45;4.10;;;3.73;;
4089;SDS011;2059;48.538;12.146;2023-02-26T20:46:47;4.10;;;3.80;;
4089;SDS011;2059;48.538;12.146;2023-02-26T20:51:49;5.00;;;4.00;;
4089;SDS011;2059;48.538;12.146;2023-02-26T20:56:52;4.20;;;3.80;;
4089;SDS011;2059;48.538;12.146;2023-02-26T21:01:54;3.70;;;3.50;;
4089;SDS011;2059;48.538;12.146;2023-02-26T21:06:56;4.20;;;3.83;;
4089;SDS011;2059;48.538;12.146;2023-02-26T21:12:12;4.37;;;4.00;;
4089;SDS011;2059;48.538;12.146;2023-02-26T21:17:15;4.03;;;3.73;;
4089;SDS011;2059;48.538;12.146;2023-02-26T21:22:17;3.53;;;3.33;;
4089;SDS011;2059;48.538;12.146;2023-02-26T21:27:20;3.70;;;3.50;;
4089;SDS011;2059;48.538;12.146;2023-02-26T21:32:22;4.17;;;3.77;;
4089;SDS011;2059;48.538;12.146;2023-02-26T21:37:24;3.43;;;3.10;;
4089;SDS011;2059;48.538;12.146;2023-02-26T21:42:28;3.43;;;3.13;;
4089;SDS011;2059;48.538;12.146;2023-02-26T21:47:30;3.60;;;3.40;;
4089;SDS011;2059;48.538;12.146;2023-02-26T21:52:31;3.93;;;3.50;;
4089;SDS011;2059;48.538;12.146;2023-02-26T21:57:35;3.90;;;3.60;;
4089;SDS011;2059;48.538;12.146;2023-02-26T22:02:36;7.33;;;4.23;;
4089;SDS011;2059;48.538;12.146;2023-02-26T22:07:38;4.33;;;3.50;;
4089;SDS011;2059;48.538;12.146;2023-02-26T22:12:41;5.20;;;4.80;;
4089;SDS011;2059;48.538;12.146;2023-02-26T22:17:43;4.13;;;3.83;;
4089;SDS011;2059;48.538;12.146;2023-02-26T22:22:45;4.37;;;3.97;;
4089;SDS011;2059;48.538;12.146;2023-02-26T22:27:48;3.60;;;3.30;;
4089;SDS011;2059;48.538;12.146;2023-02-26T22:32:50;3.97;;;3.73;;
4089;SDS011;2059;48.538;12.146;2023-02-26T22:37:52;3.47;;;3.27;;
4089;SDS011;2059;48.538;12.146;2023-02-26T22:42:55;4.23;;;3.80;;
4089;SDS011;2059;48.538;12.146;2023-02-26T22:47:57;3.53;;;3.23;;
4089;SDS011;2059;48.538;12.146;2023-02-26T22:52:59;3.60;;;3.30;;
4089;SDS011;2059;48.538;12.146;2023-02-26T22:58:02;5.00;;;4.43;;
4089;SDS011;2059;48.538;12.146;2023-02-26T23:03:04;4.73;;;4.33;;
4089;SDS011;2059;48.538;12.146;2023-02-26T23:08:07;4.90;;;4.40;;
4089;SDS011;2059;48.538;12.146;2023-02-26T23:13:10;4.93;;;4.57;;
4089;SDS011;2059;48.538;12.146;2023-02-26T23:18:12;5.17;;;4.40;;
4089;SDS011;2059;48.538;12.146;2023-02-26T23:23:14;5.00;;;4.60;;
4089;SDS011;2059;48.538;12.146;2023-02-26T23:28:17;4.83;;;4.20;;
4089;SDS011;2059;48.538;12.146;2023-02-26T23:33:19;4.27;;;3.97;;
4089;SDS011;2059;48.538;12.146;2023-02-26T23:38:21;6.23;;;3.67;;
4089;SDS011;2059;48.538;12.146;2023-02-26T23:43:24;3.60;;;3.40;;
4089;SDS011;2059;48.538;12.146;2023-02-26T23:48:26;3.27;;;3.07;;
4089;SDS011;2059;48.538;12.146;2023-02-26T23:53:28;3.50;;;3.30;;
4089;SDS011;2059;48.538;12.146;2023-02-26T23:58:31;3.50;;;3.30;;
